Terminal Aerodrome Forecast
Issued by NWS

Home | Current Version | Previous Version | Text Only | Print | Product List | Glossary On
Versions: 1 2 3 4 5 6 7 8 9 10 11 12 13 14 15 16 17 18 19 20 21 22 23 24 25 26 27 28 29 30 31 32 33 34 35 36 37
528
FTUS41 KOKX 230521
TAFSWF
TAF
KSWF 230521Z 2306/2412 VRB03KT P6SM BKN020
     FM231600 16003KT 5SM -FZDZ BR OVC010
     FM231900 17009KT 2SM -RA BR OVC010
     FM240000 20004KT 1SM -RA BR OVC004 WS020/24040KT
     FM240600 24004KT 2SM BR OVC006
     FM240900 25006KT 3SM BR SCT006 BKN120
      AMD NOT SKED=

USA.gov is the U.S. government's official web portal to all federal, state and local government web resources and services.